Ana Sayfa
METAR-TAF:

METAR-TAF

Havaalanları :

Orange Municipal Airport

Orange, Massachusetts, Amerika Birleşik Devletleri

Enlem: 42-34-18N, Boylam: 072-16-39W, yükseklik: 169 m

Güncel hava durumu gözlemi

Rapor saat 20:52 UTC de 13 dakika önce yapıldı.
Rüzgar kuzey/kuzeybatıdan 10 kt
Sıcaklık 16°C
Nem 34%
Basınç 1018 hPa
Görüş mesafesi: 16.1 km
7000 ft yükseklikte parçalı bulutlu
8500 ft yükseklikte çok bulutlu

METAR: KORE 312052Z AUTO 34010KT 10SM SCT070 OVC085 16/00 A3006 RMK AO2 SLP179 T01560000 53006

Saat: 17:05 (21:05 UTC)


TAF: eksik

4.000'den fazla havaalanı için hava durumu gözlemleri ve tahminleri (METAR ve TAF raporları).

Kullanılabilir istasyonlar harita üzerinde sarı ve kırmızı noktalarla gösterilir.

İstasyonun adını görmek için fareyi noktanın üzerinde gezdirin.

Sonrasında hava gözlem ve tahminlerini görmek için tıklayın.

Haritayı değiştirmek için: yaklaştırmak için siyah artı işaretli yeşil düğmeye ve uzaklaştırmak için de eksi işaretli düğmeye hızla tıklayın; bitişik haritalar için yeşil okları kullanın.


METAR-TAF: